This is the latest recevied weather packets stored in our database for station/object IZ8NVY-10. If no packets are shown the sender has not sent any weather packets the latest 10 day(s).
| Time | Temp. | Humidity | Pressure | Rain* | Wind** | Luminosity | Snow |
|---|---|---|---|---|---|---|---|
| 1777875205 | 18.89° C | 64% | 983.8 hPa | - | - | - | - |
| 1777871605 | 13.33° C | 66% | 983.5 hPa | - | - | - | - |
| 1777868005 | 11.11° C | 66% | 983.3 hPa | - | - | - | - |
| 1777864406 | 12.22° C | 66% | 983.2 hPa | - | - | - | - |
| 1777860805 | 12.22° C | 69% | 983.5 hPa | - | - | - | - |
| 1777857206 | 12.22° C | 67% | 983.5 hPa | - | - | - | - |
| 1777853603 | 12.78° C | 66% | 983.4 hPa | - | - | - | - |
| 1777850003 | 13.33° C | 66% | 983.5 hPa | - | - | - | - |
| 1777846402 | 13.33° C | 65% | 983.9 hPa | - | - | - | - |
| 1777842805 | 14.44° C | 59% | 983.5 hPa | - | - | - | - |
| 1777839204 | 14.44° C | 59% | 983.3 hPa | - | - | - | - |
| 1777835604 | 15.56° C | 55% | 982.8 hPa | - | - | - | - |
| 1777832000 | 17.22° C | 49% | 982.4 hPa | - | - | - | - |
| 1777828400 | 22.22° C | 42% | 981.9 hPa | - | - | - | - |
| 1777824800 | 25.56° C | 38% | 981.9 hPa | - | - | - | - |
| 1777821212 | 29.44° C | 30% | 981.7 hPa | - | - | - | - |
| 1777817601 | 27.78° C | 26% | 981.9 hPa | - | - | - | - |
| 1777814000 | 28.33° C | 27% | 982 hPa | - | - | - | - |
| 1777806798 | 28.33° C | 25% | 982.4 hPa | - | - | - | - |
| 1777803197 | 27.22° C | 27% | 982.8 hPa | - | - | - | - |
| 1777799600 | 31.11° C | 29% | 983.3 hPa | - | - | - | - |
| 1777795997 | 28.89° C | 28% | 983.7 hPa | - | - | - | - |
| 1777792396 | 27.22° C | 30% | 984 hPa | - | - | - | - |
| 1777788795 | 18.33° C | 50% | 984.2 hPa | - | - | - | - |
| 1777785196 | 12.22° C | 52% | 984.2 hPa | - | - | - | - |
* Rain since midnight (hover to see other rain measurements)
** Current wind speed in m/s (hover to see current wind gust speed)